createdAt,value
2022-12-06T00:00:15.972Z,2.05
2022-12-06T00:01:15.969Z,2.03
2022-12-06T00:02:15.969Z,2.05
2022-12-06T00:03:16.016Z,2.02
2022-12-06T00:04:15.936Z,2.02
2022-12-06T00:05:15.913Z,2.02
2022-12-06T00:06:15.895Z,2.00
2022-12-06T00:07:15.897Z,2.00
2022-12-06T00:08:15.978Z,2.00
2022-12-06T00:09:15.873Z,2.02
2022-12-06T00:10:15.857Z,1.99
2022-12-06T00:11:15.843Z,1.98
2022-12-06T00:12:15.849Z,1.95
2022-12-06T00:13:15.853Z,1.98
2022-12-06T00:14:15.820Z,1.95
2022-12-06T00:15:15.813Z,1.99
2022-12-06T00:16:15.869Z,2.02
2022-12-06T00:17:15.774Z,2.05
2022-12-06T00:18:15.771Z,2.03
2022-12-06T00:19:15.757Z,2.06
2022-12-06T00:20:15.741Z,2.06
2022-12-06T00:21:15.735Z,2.07
2022-12-06T00:22:15.724Z,2.09
2022-12-06T00:23:15.722Z,2.09
2022-12-06T00:24:15.709Z,2.10
2022-12-06T00:25:15.697Z,2.10
2022-12-06T00:26:15.677Z,2.14
2022-12-06T00:27:15.690Z,2.16
2022-12-06T00:28:15.672Z,2.14
2022-12-06T00:29:15.658Z,2.10
2022-12-06T00:30:15.627Z,2.12
2022-12-06T00:31:15.819Z,2.12
2022-12-06T00:32:19.489Z,2.12
2022-12-06T00:33:15.600Z,2.10
2022-12-06T00:34:15.604Z,2.09
2022-12-06T00:35:15.586Z,2.09
2022-12-06T00:36:15.563Z,2.09
2022-12-06T00:37:15.555Z,2.10
2022-12-06T00:38:15.548Z,2.14
2022-12-06T00:39:15.535Z,2.14
2022-12-06T00:40:15.524Z,2.14
2022-12-06T00:41:15.543Z,2.14
2022-12-06T00:42:15.494Z,2.10
2022-12-06T00:43:15.500Z,2.12
2022-12-06T00:44:15.481Z,2.14
2022-12-06T00:45:15.487Z,2.10
2022-12-06T00:46:15.572Z,2.12
2022-12-06T00:47:15.446Z,2.12
2022-12-06T00:48:15.431Z,2.12
2022-12-06T00:49:15.433Z,2.10
2022-12-06T00:50:15.410Z,2.07
2022-12-06T00:51:15.424Z,2.07
2022-12-06T00:52:15.389Z,2.06
2022-12-06T00:53:15.378Z,2.05
2022-12-06T00:54:15.367Z,2.03
2022-12-06T00:55:15.355Z,2.05
2022-12-06T00:56:15.354Z,2.06
2022-12-06T00:57:15.335Z,2.07
2022-12-06T00:58:15.322Z,2.07
2022-12-06T00:59:15.331Z,2.05
2022-12-06T01:00:15.314Z,2.05
2022-12-06T01:01:15.318Z,2.02
2022-12-06T01:02:15.298Z,2.00
2022-12-06T01:03:15.340Z,2.00
2022-12-06T01:04:15.256Z,2.02
2022-12-06T01:05:15.251Z,2.03
2022-12-06T01:06:15.246Z,2.02
2022-12-06T01:07:15.218Z,2.02
2022-12-06T01:08:15.271Z,2.03
2022-12-06T01:09:15.205Z,2.05
2022-12-06T01:10:15.198Z,2.07
2022-12-06T01:11:15.250Z,2.07
2022-12-06T01:12:15.192Z,2.06
2022-12-06T01:13:15.155Z,2.02
2022-12-06T01:14:15.153Z,2.00
2022-12-06T01:15:15.159Z,2.00
2022-12-06T01:16:15.251Z,2.06
2022-12-06T01:17:15.118Z,2.05
2022-12-06T01:18:15.108Z,2.05
2022-12-06T01:19:15.098Z,2.03
2022-12-06T01:20:15.097Z,2.06
2022-12-06T01:21:15.079Z,2.07
2022-12-06T01:22:15.094Z,2.05
2022-12-06T01:23:15.052Z,2.05
2022-12-06T01:24:15.038Z,2.03
2022-12-06T01:25:15.042Z,2.05
2022-12-06T01:26:15.026Z,2.05
2022-12-06T01:27:15.024Z,2.02
2022-12-06T01:28:14.997Z,2.03
2022-12-06T01:29:14.984Z,2.05
2022-12-06T01:30:14.977Z,2.05
2022-12-06T01:31:15.074Z,2.07
2022-12-06T01:32:14.957Z,2.07
2022-12-06T01:33:14.962Z,2.06
2022-12-06T01:34:14.953Z,2.05
2022-12-06T01:35:14.921Z,2.00
2022-12-06T01:36:14.929Z,2.02
2022-12-06T01:37:14.909Z,2.03
2022-12-06T01:38:14.902Z,2.06
2022-12-06T01:39:14.900Z,2.09
2022-12-06T01:40:14.869Z,2.10
2022-12-06T01:41:14.855Z,2.10
2022-12-06T01:42:14.848Z,2.10
2022-12-06T01:43:14.843Z,2.12
2022-12-06T01:44:18.493Z,2.16
2022-12-06T01:45:14.823Z,2.16
2022-12-06T01:46:14.866Z,2.17
2022-12-06T01:47:14.795Z,2.18
2022-12-06T01:48:14.776Z,2.17
2022-12-06T01:49:14.767Z,2.16
2022-12-06T01:50:14.777Z,2.16
2022-12-06T01:51:14.739Z,2.16
2022-12-06T01:52:14.731Z,2.16
2022-12-06T01:53:14.724Z,2.12
2022-12-06T01:54:14.704Z,2.10
2022-12-06T01:55:14.708Z,2.10
2022-12-06T01:56:14.692Z,2.12
2022-12-06T01:57:14.688Z,2.14
2022-12-06T01:58:14.666Z,2.12
2022-12-06T01:59:14.660Z,2.14
2022-12-06T02:00:14.660Z,2.14
2022-12-06T02:01:14.652Z,2.16
2022-12-06T02:02:14.690Z,2.16
2022-12-06T02:03:14.620Z,2.16
2022-12-06T02:04:14.610Z,2.18
2022-12-06T02:05:14.599Z,2.18
2022-12-06T02:06:14.591Z,2.18
2022-12-06T02:07:14.574Z,2.20
2022-12-06T02:08:14.640Z,2.23
2022-12-06T02:09:14.545Z,2.23
2022-12-06T02:10:14.529Z,2.23
2022-12-06T02:11:14.547Z,2.23
2022-12-06T02:12:14.510Z,2.23
2022-12-06T02:13:14.504Z,2.18
2022-12-06T02:14:14.503Z,2.18
2022-12-06T02:15:14.485Z,2.17
2022-12-06T02:16:14.516Z,2.17
2022-12-06T02:17:14.578Z,2.17
2022-12-06T02:18:14.452Z,2.20
2022-12-06T02:19:14.460Z,2.18
2022-12-06T02:20:14.444Z,2.21
2022-12-06T02:21:14.418Z,2.17
2022-12-06T02:22:14.418Z,2.17
2022-12-06T02:23:14.421Z,2.17
2022-12-06T02:24:14.385Z,2.17
2022-12-06T02:25:14.376Z,2.16
2022-12-06T02:26:14.362Z,2.14
2022-12-06T02:27:14.351Z,2.14
2022-12-06T02:28:14.336Z,2.16
2022-12-06T02:29:14.353Z,2.12
2022-12-06T02:30:14.329Z,2.10
2022-12-06T02:31:14.407Z,2.14
2022-12-06T02:32:14.311Z,2.12
2022-12-06T02:33:14.289Z,2.14
2022-12-06T02:34:14.321Z,2.16
2022-12-06T02:35:14.291Z,2.16
2022-12-06T02:36:14.254Z,2.16
2022-12-06T02:37:14.246Z,2.16
2022-12-06T02:38:14.237Z,2.14
2022-12-06T02:39:14.228Z,2.16
2022-12-06T02:40:14.216Z,2.17
2022-12-06T02:41:14.226Z,2.17
2022-12-06T02:42:14.196Z,2.17
2022-12-06T02:43:14.180Z,2.18
2022-12-06T02:44:14.176Z,2.18
2022-12-06T02:45:14.153Z,2.20
2022-12-06T02:46:14.315Z,2.18
2022-12-06T02:47:14.142Z,2.21
2022-12-06T02:48:14.150Z,2.23
2022-12-06T02:49:14.128Z,2.23
2022-12-06T02:50:14.111Z,2.25
2022-12-06T02:51:14.092Z,2.23
2022-12-06T02:52:14.094Z,2.23
2022-12-06T02:53:14.088Z,2.24
2022-12-06T02:54:14.067Z,2.25
2022-12-06T02:55:14.061Z,2.25
2022-12-06T02:56:14.061Z,2.25
2022-12-06T02:57:14.046Z,2.24
2022-12-06T02:58:14.019Z,2.23
2022-12-06T02:59:14.004Z,2.21
2022-12-06T03:00:13.997Z,2.20
2022-12-06T03:01:14.032Z,2.20
2022-12-06T03:02:14.015Z,2.20
2022-12-06T03:03:13.968Z,2.21
2022-12-06T03:04:13.968Z,2.20
2022-12-06T03:05:13.950Z,2.18
2022-12-06T03:06:13.933Z,2.17
2022-12-06T03:07:13.961Z,2.17
2022-12-06T03:08:13.979Z,2.17
2022-12-06T03:09:13.899Z,2.20
2022-12-06T03:10:13.893Z,2.20
2022-12-06T03:11:13.878Z,2.20
2022-12-06T03:12:13.864Z,2.18
2022-12-06T03:13:13.858Z,2.20
2022-12-06T03:14:14.927Z,2.17
2022-12-06T03:15:13.829Z,2.20
2022-12-06T03:16:13.978Z,2.17
2022-12-06T03:17:13.819Z,2.17
2022-12-06T03:18:13.810Z,2.17
2022-12-06T03:19:13.809Z,2.21
2022-12-06T03:20:13.781Z,2.24
2022-12-06T03:21:13.762Z,2.24
2022-12-06T03:22:13.751Z,2.30
2022-12-06T03:23:13.754Z,2.30
2022-12-06T03:24:13.742Z,2.34
2022-12-06T03:25:13.736Z,2.35
2022-12-06T03:26:13.724Z,2.36
2022-12-06T03:27:13.725Z,2.35
2022-12-06T03:28:13.686Z,2.36
2022-12-06T03:29:13.690Z,2.39
2022-12-06T03:30:13.679Z,2.41
2022-12-06T03:31:13.788Z,2.41
2022-12-06T03:32:13.652Z,2.41
2022-12-06T03:33:13.633Z,2.39
2022-12-06T03:34:13.626Z,2.42
2022-12-06T03:35:13.622Z,2.42
2022-12-06T03:36:13.600Z,2.42
2022-12-06T03:37:13.604Z,2.41
2022-12-06T03:38:13.604Z,2.39
2022-12-06T03:39:13.588Z,2.38
2022-12-06T03:40:13.564Z,2.36
2022-12-06T03:41:13.559Z,2.30
2022-12-06T03:42:13.539Z,2.34
2022-12-06T03:43:13.523Z,2.34
2022-12-06T03:44:13.527Z,2.30
2022-12-06T03:45:13.589Z,2.25
2022-12-06T03:46:13.664Z,2.25
2022-12-06T03:47:16.055Z,2.27
2022-12-06T03:48:13.470Z,2.25
2022-12-06T03:49:13.462Z,2.28
2022-12-06T03:50:13.466Z,2.30
2022-12-06T03:51:13.438Z,2.31
2022-12-06T03:52:13.430Z,2.30
2022-12-06T03:53:13.426Z,2.35
2022-12-06T03:54:13.396Z,2.35
2022-12-06T03:55:13.386Z,2.38
2022-12-06T03:56:13.387Z,2.36
2022-12-06T03:57:13.425Z,2.35
2022-12-06T03:58:13.361Z,2.35
2022-12-06T03:59:13.378Z,2.35
2022-12-06T04:00:13.342Z,2.35
2022-12-06T04:01:13.364Z,2.28
2022-12-06T04:02:13.400Z,2.25
2022-12-06T04:03:13.313Z,2.24
2022-12-06T04:04:13.414Z,2.25
2022-12-06T04:05:13.315Z,2.28
2022-12-06T04:06:13.266Z,2.30
2022-12-06T04:07:13.273Z,2.35
2022-12-06T04:08:13.367Z,2.36
2022-12-06T04:09:13.236Z,2.39
2022-12-06T04:10:13.230Z,2.39
2022-12-06T04:11:13.282Z,2.35
2022-12-06T04:12:13.215Z,2.31
2022-12-06T04:13:18.216Z,2.28
2022-12-06T04:14:13.191Z,2.28
2022-12-06T04:15:13.183Z,2.25
2022-12-06T04:16:13.194Z,2.28
2022-12-06T04:17:13.169Z,2.24
2022-12-06T04:18:13.142Z,2.21
2022-12-06T04:19:13.128Z,2.23
2022-12-06T04:20:13.151Z,2.25
2022-12-06T04:21:13.106Z,2.28
2022-12-06T04:22:13.103Z,2.35
2022-12-06T04:23:13.086Z,2.41
2022-12-06T04:24:13.081Z,2.38
2022-12-06T04:25:13.058Z,2.35
2022-12-06T04:26:13.044Z,2.36
2022-12-06T04:27:13.063Z,2.41
2022-12-06T04:28:13.029Z,2.39
2022-12-06T04:29:13.032Z,2.41
2022-12-06T04:30:13.006Z,2.39
2022-12-06T04:31:15.841Z,2.38
2022-12-06T04:32:12.994Z,2.35
2022-12-06T04:33:12.986Z,2.24
2022-12-06T04:34:12.972Z,2.14
2022-12-06T04:35:12.947Z,2.06
2022-12-06T04:36:12.951Z,2.02
2022-12-06T04:37:12.927Z,1.98
2022-12-06T04:38:12.923Z,2.00
2022-12-06T04:39:17.562Z,2.06
2022-12-06T04:40:12.907Z,2.10
2022-12-06T04:41:12.882Z,2.16
2022-12-06T04:42:12.876Z,2.17
2022-12-06T04:43:12.879Z,2.16
2022-12-06T04:44:12.850Z,2.17
2022-12-06T04:45:12.877Z,2.17
2022-12-06T04:46:12.890Z,2.17
2022-12-06T04:47:12.841Z,2.18
2022-12-06T04:48:12.813Z,2.18
2022-12-06T04:49:12.798Z,2.23
2022-12-06T04:50:12.794Z,2.23
2022-12-06T04:51:12.817Z,2.23
2022-12-06T04:52:12.761Z,2.23
2022-12-06T04:53:12.767Z,2.23
2022-12-06T04:54:12.750Z,2.23
2022-12-06T04:55:12.745Z,2.24
2022-12-06T04:56:12.723Z,2.24
2022-12-06T04:57:12.729Z,2.24
2022-12-06T04:58:12.712Z,2.24
2022-12-06T04:59:12.705Z,2.24
2022-12-06T05:00:12.675Z,2.28
2022-12-06T05:01:12.734Z,2.31
2022-12-06T05:02:12.663Z,2.34
2022-12-06T05:03:12.665Z,2.38
2022-12-06T05:04:12.690Z,2.36
2022-12-06T05:05:12.623Z,2.34
2022-12-06T05:06:12.618Z,2.35
2022-12-06T05:07:12.598Z,2.35
2022-12-06T05:08:12.684Z,2.34
2022-12-06T05:09:12.583Z,2.35
2022-12-06T05:10:12.563Z,2.35
2022-12-06T05:11:12.565Z,2.35
2022-12-06T05:12:12.548Z,2.35
2022-12-06T05:13:12.527Z,2.34
2022-12-06T05:14:12.531Z,2.35
2022-12-06T05:15:15.806Z,2.35
2022-12-06T05:16:12.580Z,2.35
2022-12-06T05:17:12.486Z,2.35
2022-12-06T05:18:12.473Z,2.35
2022-12-06T05:19:12.477Z,2.39
2022-12-06T05:20:12.454Z,2.38
2022-12-06T05:21:12.447Z,2.39
2022-12-06T05:22:12.427Z,2.41
2022-12-06T05:23:12.434Z,2.39
2022-12-06T05:24:12.410Z,2.36
2022-12-06T05:25:12.411Z,2.35
2022-12-06T05:26:12.390Z,2.34
2022-12-06T05:27:12.378Z,2.35
2022-12-06T05:28:12.369Z,2.35
2022-12-06T05:29:12.354Z,2.35
2022-12-06T05:30:12.341Z,2.36
2022-12-06T05:31:12.412Z,2.38
2022-12-06T05:32:12.315Z,2.35
2022-12-06T05:33:12.316Z,2.35
2022-12-06T05:34:12.292Z,2.34
2022-12-06T05:35:12.285Z,2.31
2022-12-06T05:36:12.293Z,2.30
2022-12-06T05:37:12.263Z,2.30
2022-12-06T05:38:12.259Z,2.31
2022-12-06T05:39:12.239Z,2.35
2022-12-06T05:40:12.225Z,2.38
2022-12-06T05:41:12.222Z,2.36
2022-12-06T05:42:20.393Z,2.39
2022-12-06T05:43:12.211Z,2.42
2022-12-06T05:44:12.222Z,2.46
2022-12-06T05:45:12.173Z,2.46
2022-12-06T05:46:12.217Z,2.52
2022-12-06T05:47:12.158Z,2.53
2022-12-06T05:48:12.158Z,2.52
2022-12-06T05:49:12.137Z,2.49
2022-12-06T05:50:12.132Z,2.49
2022-12-06T05:51:12.104Z,2.48
2022-12-06T05:52:12.098Z,2.43
2022-12-06T05:53:12.087Z,2.43
2022-12-06T05:54:12.074Z,2.43
2022-12-06T05:55:12.072Z,2.46
2022-12-06T05:56:12.057Z,2.46
2022-12-06T05:57:12.045Z,2.45
2022-12-06T05:58:12.027Z,2.45
2022-12-06T05:59:12.032Z,2.45
2022-12-06T06:00:12.031Z,2.45
2022-12-06T06:01:11.993Z,2.49
2022-12-06T06:02:12.178Z,2.52
2022-12-06T06:03:12.160Z,2.53
2022-12-06T06:04:11.972Z,2.57
2022-12-06T06:05:11.979Z,2.57
2022-12-06T06:06:11.945Z,2.56
2022-12-06T06:07:11.930Z,2.54
2022-12-06T06:08:11.968Z,2.56
2022-12-06T06:09:11.926Z,2.56
2022-12-06T06:10:11.908Z,2.57
2022-12-06T06:11:11.894Z,2.60
2022-12-06T06:12:12.803Z,2.61
2022-12-06T06:13:11.865Z,2.61
2022-12-06T06:14:11.873Z,2.64
2022-12-06T06:15:11.851Z,2.63
2022-12-06T06:16:11.884Z,2.60
2022-12-06T06:17:11.817Z,2.59
2022-12-06T06:18:11.848Z,2.57
2022-12-06T06:19:11.796Z,2.59
2022-12-06T06:20:11.801Z,2.60
2022-12-06T06:21:11.773Z,2.59
2022-12-06T06:22:11.784Z,2.54
2022-12-06T06:23:11.765Z,2.56
2022-12-06T06:24:11.748Z,2.53
2022-12-06T06:25:11.737Z,2.53
2022-12-06T06:26:11.736Z,2.53
2022-12-06T06:27:11.706Z,2.56
2022-12-06T06:28:11.710Z,2.59
2022-12-06T06:29:11.685Z,2.61
2022-12-06T06:30:11.683Z,2.59
2022-12-06T06:31:11.677Z,2.60
2022-12-06T06:32:11.707Z,2.61
2022-12-06T06:33:11.642Z,2.60
2022-12-06T06:34:11.650Z,2.63
2022-12-06T06:35:11.620Z,2.63
2022-12-06T06:36:11.616Z,2.63
2022-12-06T06:37:11.618Z,2.63
2022-12-06T06:38:11.584Z,2.63
2022-12-06T06:39:11.583Z,2.64
2022-12-06T06:40:11.588Z,2.64
2022-12-06T06:41:11.557Z,2.67
2022-12-06T06:42:11.540Z,2.66
2022-12-06T06:43:11.547Z,2.66
2022-12-06T06:44:11.534Z,2.69
2022-12-06T06:45:11.511Z,2.69
2022-12-06T06:46:11.565Z,2.67
2022-12-06T06:47:11.490Z,2.66
2022-12-06T06:48:11.478Z,2.66
2022-12-06T06:49:11.478Z,2.63
2022-12-06T06:50:11.489Z,2.60
2022-12-06T06:51:11.445Z,2.59
2022-12-06T06:52:11.434Z,2.57
2022-12-06T06:53:11.424Z,2.59
2022-12-06T06:54:11.416Z,2.60
2022-12-06T06:55:11.420Z,2.59
2022-12-06T06:56:11.397Z,2.59
2022-12-06T06:57:17.174Z,2.57
2022-12-06T06:58:11.530Z,2.59
2022-12-06T06:59:11.665Z,2.57
2022-12-06T07:00:11.406Z,2.57
2022-12-06T07:01:11.546Z,2.59
2022-12-06T07:02:11.396Z,2.60
2022-12-06T07:03:11.317Z,2.60
2022-12-06T07:04:11.301Z,2.59
2022-12-06T07:05:11.294Z,2.59
2022-12-06T07:06:11.287Z,2.63
2022-12-06T07:07:14.223Z,2.61
2022-12-06T07:08:11.335Z,2.60
2022-12-06T07:09:11.248Z,2.59
2022-12-06T07:10:11.253Z,2.57
2022-12-06T07:11:11.245Z,2.59
2022-12-06T07:12:11.211Z,2.56
2022-12-06T07:13:11.201Z,2.56
2022-12-06T07:14:11.211Z,2.60
2022-12-06T07:15:11.183Z,2.59
2022-12-06T07:16:11.166Z,2.60
2022-12-06T07:17:11.238Z,2.60
2022-12-06T07:18:11.142Z,2.61
2022-12-06T07:19:11.147Z,2.66
2022-12-06T07:20:11.125Z,2.67
2022-12-06T07:21:11.140Z,2.71
2022-12-06T07:22:11.118Z,2.67
2022-12-06T07:23:11.098Z,2.67
2022-12-06T07:24:11.089Z,2.67
2022-12-06T07:25:11.078Z,2.67
2022-12-06T07:26:11.074Z,2.69
2022-12-06T07:27:11.049Z,2.67
2022-12-06T07:28:11.047Z,2.67
2022-12-06T07:29:11.043Z,2.67
2022-12-06T07:30:15.793Z,2.67
2022-12-06T07:31:11.149Z,2.67
2022-12-06T07:32:10.990Z,2.72
2022-12-06T07:33:10.975Z,2.74
2022-12-06T07:34:10.974Z,2.77
2022-12-06T07:35:10.956Z,2.78
2022-12-06T07:36:12.809Z,2.81
2022-12-06T07:37:10.934Z,2.81
2022-12-06T07:38:10.928Z,2.79
2022-12-06T07:39:14.831Z,2.78
2022-12-06T07:40:10.907Z,2.78
2022-12-06T07:41:10.889Z,2.75
2022-12-06T07:42:10.889Z,2.74
2022-12-06T07:43:10.878Z,2.75
2022-12-06T07:44:10.938Z,2.78
2022-12-06T07:45:10.844Z,2.81
2022-12-06T07:46:10.946Z,2.84
2022-12-06T07:47:10.845Z,2.85
2022-12-06T07:48:10.817Z,2.85
2022-12-06T07:49:10.799Z,2.87
2022-12-06T07:50:17.400Z,2.87
2022-12-06T07:51:10.788Z,2.92
2022-12-06T07:52:10.772Z,2.93
2022-12-06T07:53:10.790Z,2.92
2022-12-06T07:54:10.774Z,2.92
2022-12-06T07:55:10.750Z,2.90
2022-12-06T07:56:10.743Z,2.87
2022-12-06T07:57:10.725Z,2.87
2022-12-06T07:58:10.722Z,2.84
2022-12-06T07:59:10.731Z,2.87
2022-12-06T08:00:10.705Z,2.89
2022-12-06T08:01:10.780Z,2.89
2022-12-06T08:02:10.663Z,2.89
2022-12-06T08:03:10.649Z,2.85
2022-12-06T08:04:10.683Z,2.85
2022-12-06T08:05:10.642Z,2.87
2022-12-06T08:06:10.630Z,2.92
2022-12-06T08:07:10.613Z,2.95
2022-12-06T08:08:10.704Z,2.96
2022-12-06T08:09:10.601Z,2.97
2022-12-06T08:10:10.582Z,3.00
2022-12-06T08:11:10.571Z,3.03
2022-12-06T08:12:10.551Z,3.06
2022-12-06T08:13:10.540Z,3.03
2022-12-06T08:14:10.559Z,3.03
2022-12-06T08:15:10.519Z,3.00
2022-12-06T08:16:10.598Z,2.99
2022-12-06T08:17:10.491Z,2.99
2022-12-06T08:18:10.495Z,3.02
2022-12-06T08:19:10.482Z,3.06
2022-12-06T08:20:10.483Z,3.08
2022-12-06T08:21:10.453Z,3.14
2022-12-06T08:22:10.453Z,3.14
2022-12-06T08:23:10.426Z,3.14
2022-12-06T08:24:10.421Z,3.13
2022-12-06T08:25:10.406Z,3.13
2022-12-06T08:26:10.420Z,3.14
2022-12-06T08:27:10.393Z,3.13
2022-12-06T08:28:10.378Z,3.11
2022-12-06T08:29:10.371Z,3.11
2022-12-06T08:30:10.349Z,3.10
2022-12-06T08:31:10.434Z,3.08
2022-12-06T08:32:10.357Z,3.06
2022-12-06T08:33:10.327Z,3.05
2022-12-06T08:34:10.313Z,3.00
2022-12-06T08:35:10.301Z,3.03
2022-12-06T08:36:10.316Z,3.05
2022-12-06T08:37:10.279Z,3.03
2022-12-06T08:38:10.274Z,3.03
2022-12-06T08:39:10.256Z,3.06
2022-12-06T08:40:10.253Z,3.08
2022-12-06T08:41:10.248Z,3.11
2022-12-06T08:42:10.222Z,3.10
2022-12-06T08:43:10.226Z,3.13
2022-12-06T08:44:10.243Z,3.13
2022-12-06T08:45:10.222Z,3.14
2022-12-06T08:46:10.238Z,3.14
2022-12-06T08:47:10.162Z,3.15
2022-12-06T08:48:10.167Z,3.15
2022-12-06T08:49:10.157Z,3.17
2022-12-06T08:50:10.137Z,3.21
2022-12-06T08:51:10.143Z,3.21
2022-12-06T08:52:10.118Z,3.23
2022-12-06T08:53:10.268Z,3.26
2022-12-06T08:54:10.198Z,3.31
2022-12-06T08:55:10.102Z,3.33
2022-12-06T08:56:10.070Z,3.33
2022-12-06T08:57:10.058Z,3.32
2022-12-06T08:58:10.069Z,3.29
2022-12-06T08:59:10.721Z,3.28
2022-12-06T09:00:10.038Z,3.24
2022-12-06T09:01:10.037Z,3.21
2022-12-06T09:02:10.461Z,3.23
2022-12-06T09:03:10.028Z,3.23
2022-12-06T09:04:10.050Z,3.24
2022-12-06T09:05:10.000Z,3.24
2022-12-06T09:06:09.980Z,3.24
2022-12-06T09:07:11.841Z,3.23
2022-12-06T09:08:09.993Z,3.20
2022-12-06T09:09:09.940Z,3.21
2022-12-06T09:10:09.911Z,3.21
2022-12-06T09:11:09.913Z,3.20
2022-12-06T09:12:09.914Z,3.18
2022-12-06T09:13:09.887Z,3.18
2022-12-06T09:14:09.897Z,3.17
2022-12-06T09:15:09.895Z,3.18
2022-12-06T09:16:09.906Z,3.21
2022-12-06T09:17:09.866Z,3.24
2022-12-06T09:18:09.821Z,3.26
2022-12-06T09:19:09.820Z,3.24
2022-12-06T09:20:10.146Z,3.23
2022-12-06T09:21:09.832Z,3.26
2022-12-06T09:22:09.776Z,3.31
2022-12-06T09:23:10.046Z,3.33
2022-12-06T09:24:09.763Z,3.29
2022-12-06T09:25:09.741Z,3.33
2022-12-06T09:26:09.800Z,3.36
2022-12-06T09:27:09.735Z,3.43
2022-12-06T09:28:09.722Z,3.43
2022-12-06T09:29:09.739Z,3.48
2022-12-06T09:30:09.708Z,3.47
2022-12-06T09:31:09.829Z,3.45
2022-12-06T09:32:09.717Z,3.45
2022-12-06T09:33:09.656Z,3.43
2022-12-06T09:34:09.648Z,3.43
2022-12-06T09:35:14.923Z,3.43
2022-12-06T09:36:09.656Z,3.42
2022-12-06T09:37:09.644Z,3.43
2022-12-06T09:38:09.609Z,3.42
2022-12-06T09:39:09.602Z,3.40
2022-12-06T09:40:09.579Z,3.43
2022-12-06T09:41:09.567Z,3.48
2022-12-06T09:42:09.563Z,3.51
2022-12-06T09:43:09.549Z,3.57
2022-12-06T09:44:09.563Z,3.61
2022-12-06T09:45:09.526Z,3.66
2022-12-06T09:46:09.544Z,3.66
2022-12-06T09:47:09.551Z,3.66
2022-12-06T09:48:09.497Z,3.68
2022-12-06T09:49:09.481Z,3.66
2022-12-06T09:50:09.532Z,3.66
2022-12-06T09:51:09.461Z,3.68
2022-12-06T09:52:09.452Z,3.66
2022-12-06T09:53:09.428Z,3.69
2022-12-06T09:54:09.475Z,3.70
2022-12-06T09:55:09.433Z,3.73
2022-12-06T09:56:09.408Z,3.72
2022-12-06T09:57:09.394Z,3.75
2022-12-06T09:58:09.391Z,3.78
2022-12-06T09:59:09.399Z,3.78
2022-12-06T10:00:11.653Z,3.73
2022-12-06T10:01:09.364Z,3.73
2022-12-06T10:02:09.352Z,3.75
2022-12-06T10:03:09.366Z,3.75
2022-12-06T10:04:09.326Z,3.76
2022-12-06T10:05:09.304Z,3.79
2022-12-06T10:06:09.304Z,3.83
2022-12-06T10:07:09.278Z,3.84
2022-12-06T10:08:09.434Z,3.86
2022-12-06T10:09:09.504Z,3.86
2022-12-06T10:10:09.248Z,3.90
2022-12-06T10:11:09.242Z,3.96
2022-12-06T10:12:09.219Z,4.00
2022-12-06T10:13:09.245Z,4.04
2022-12-06T10:14:09.198Z,4.05
2022-12-06T10:15:09.197Z,4.06
2022-12-06T10:16:09.248Z,4.09
2022-12-06T10:17:09.662Z,4.14
2022-12-06T10:18:09.168Z,4.12
2022-12-06T10:19:09.160Z,4.09
2022-12-06T10:20:09.140Z,4.09
2022-12-06T10:21:09.149Z,4.11
2022-12-06T10:22:09.125Z,4.16
2022-12-06T10:23:09.140Z,4.20
2022-12-06T10:24:09.117Z,4.26
2022-12-06T10:25:09.096Z,4.30
2022-12-06T10:26:09.091Z,4.33
2022-12-06T10:27:09.090Z,4.32
2022-12-06T10:28:09.052Z,4.30
2022-12-06T10:29:09.039Z,4.29
2022-12-06T10:30:09.051Z,4.26
2022-12-06T10:31:09.083Z,4.27
2022-12-06T10:32:09.022Z,4.24
2022-12-06T10:33:09.014Z,4.24
2022-12-06T10:34:08.996Z,4.23
2022-12-06T10:35:08.974Z,4.23
2022-12-06T10:36:08.968Z,4.23
2022-12-06T10:37:08.974Z,4.22
2022-12-06T10:38:08.959Z,4.24
2022-12-06T10:39:08.936Z,4.23
2022-12-06T10:40:08.922Z,4.24
2022-12-06T10:41:08.925Z,4.20
2022-12-06T10:42:08.899Z,4.22
2022-12-06T10:43:08.923Z,4.20
2022-12-06T10:44:08.872Z,4.22
2022-12-06T10:45:08.869Z,4.22
2022-12-06T10:46:09.586Z,4.23
2022-12-06T10:47:08.898Z,4.24
2022-12-06T10:48:08.859Z,4.26
2022-12-06T10:49:08.826Z,4.26
2022-12-06T10:50:08.814Z,4.29
2022-12-06T10:51:08.800Z,4.32
2022-12-06T10:52:08.798Z,4.33
2022-12-06T10:53:10.301Z,4.34
2022-12-06T10:54:08.781Z,4.36
2022-12-06T10:55:08.767Z,4.34
2022-12-06T10:56:08.759Z,4.36
2022-12-06T10:57:08.752Z,4.37
2022-12-06T10:58:08.742Z,4.41
2022-12-06T10:59:08.741Z,4.41
2022-12-06T11:00:14.653Z,4.45
2022-12-06T11:01:08.760Z,4.45
2022-12-06T11:02:08.724Z,4.50
2022-12-06T11:03:08.682Z,4.51
2022-12-06T11:04:08.665Z,4.55
2022-12-06T11:05:08.664Z,4.58
2022-12-06T11:06:08.637Z,4.62
2022-12-06T11:07:08.738Z,4.66
2022-12-06T11:08:08.723Z,4.67
2022-12-06T11:09:08.604Z,4.70
2022-12-06T11:10:08.600Z,4.70
2022-12-06T11:11:08.593Z,4.75
2022-12-06T11:12:08.569Z,4.75
2022-12-06T11:13:08.564Z,4.73
2022-12-06T11:14:08.561Z,4.73
2022-12-06T11:15:08.560Z,4.75
2022-12-06T11:16:08.571Z,4.75
2022-12-06T11:17:08.530Z,4.80
2022-12-06T11:18:08.508Z,4.84
2022-12-06T11:19:08.500Z,4.85
2022-12-06T11:20:08.494Z,4.88
2022-12-06T11:21:08.497Z,4.91
2022-12-06T11:22:08.472Z,4.96
2022-12-06T11:23:08.461Z,4.96
2022-12-06T11:24:08.447Z,5.00
2022-12-06T11:25:08.426Z,4.99
2022-12-06T11:26:08.428Z,5.02
2022-12-06T11:27:08.431Z,5.02
2022-12-06T11:28:08.403Z,5.02
2022-12-06T11:29:08.381Z,5.00
2022-12-06T11:30:08.385Z,5.00
2022-12-06T11:31:08.456Z,4.97
2022-12-06T11:32:08.368Z,4.99
2022-12-06T11:33:08.355Z,5.02
2022-12-06T11:34:08.337Z,5.04
2022-12-06T11:35:08.335Z,5.07
2022-12-06T11:36:08.319Z,5.07
2022-12-06T11:37:08.309Z,5.09
2022-12-06T11:38:08.289Z,5.12
2022-12-06T11:39:08.307Z,5.10
2022-12-06T11:40:08.281Z,5.15
2022-12-06T11:41:08.270Z,5.18
2022-12-06T11:42:08.254Z,5.17
2022-12-06T11:43:08.246Z,5.12
2022-12-06T11:44:08.229Z,5.09
2022-12-06T11:45:08.278Z,5.10
2022-12-06T11:46:08.209Z,5.17
2022-12-06T11:47:08.274Z,5.18
2022-12-06T11:48:08.196Z,5.20
2022-12-06T11:49:08.185Z,5.24
2022-12-06T11:50:11.037Z,5.22
2022-12-06T11:51:08.183Z,5.25
2022-12-06T11:52:08.143Z,5.27
2022-12-06T11:53:08.143Z,5.31
2022-12-06T11:54:08.232Z,5.27
2022-12-06T11:55:08.132Z,5.25
2022-12-06T11:56:08.111Z,5.24
2022-12-06T11:57:08.086Z,5.24
2022-12-06T11:58:08.079Z,5.25
2022-12-06T11:59:08.076Z,5.28
2022-12-06T12:00:08.050Z,5.27
2022-12-06T12:01:10.015Z,5.27
2022-12-06T12:02:08.112Z,5.28
2022-12-06T12:03:08.125Z,5.30
2022-12-06T12:04:08.012Z,5.31
2022-12-06T12:05:07.999Z,5.31
2022-12-06T12:06:07.991Z,5.31
2022-12-06T12:07:07.993Z,5.25
2022-12-06T12:08:08.089Z,5.27
2022-12-06T12:09:07.965Z,5.20
2022-12-06T12:10:07.949Z,5.20
2022-12-06T12:11:07.945Z,5.18
2022-12-06T12:12:07.960Z,5.18
2022-12-06T12:13:07.940Z,5.15
2022-12-06T12:14:07.928Z,5.15
2022-12-06T12:15:07.899Z,5.15
2022-12-06T12:16:07.938Z,5.18
2022-12-06T12:17:07.882Z,5.18
2022-12-06T12:18:07.860Z,5.22
2022-12-06T12:19:07.866Z,5.22
2022-12-06T12:20:07.851Z,5.22
2022-12-06T12:21:07.836Z,5.27
2022-12-06T12:22:07.836Z,5.28
2022-12-06T12:23:07.809Z,5.25
2022-12-06T12:24:07.824Z,5.24
2022-12-06T12:25:23.618Z,5.22
2022-12-06T12:26:07.782Z,5.18
2022-12-06T12:27:07.796Z,5.18
2022-12-06T12:28:07.753Z,5.21
2022-12-06T12:29:07.739Z,5.20
2022-12-06T12:30:07.736Z,5.20
2022-12-06T12:31:07.726Z,5.21
2022-12-06T12:32:07.786Z,5.22
2022-12-06T12:33:07.717Z,5.24
2022-12-06T12:34:07.687Z,5.24
2022-12-06T12:35:07.676Z,5.27
2022-12-06T12:36:07.682Z,5.28
2022-12-06T12:37:07.651Z,5.30
2022-12-06T12:38:07.655Z,5.33
2022-12-06T12:39:07.636Z,5.33
2022-12-06T12:40:10.829Z,5.36
2022-12-06T12:41:07.622Z,5.36
2022-12-06T12:42:07.600Z,5.31
2022-12-06T12:43:07.589Z,5.28
2022-12-06T12:44:36.414Z,5.27
2022-12-06T12:45:07.582Z,5.25
2022-12-06T12:46:07.624Z,5.22
2022-12-06T12:47:07.566Z,5.24
2022-12-06T12:48:07.545Z,5.27
2022-12-06T12:49:07.534Z,5.28
2022-12-06T12:50:07.516Z,5.30
2022-12-06T12:51:07.505Z,5.31
2022-12-06T12:52:07.498Z,5.33
2022-12-06T12:53:07.510Z,5.31
2022-12-06T12:54:07.476Z,5.33
2022-12-06T12:55:07.461Z,5.33
2022-12-06T12:56:07.454Z,5.33
2022-12-06T12:57:07.441Z,5.31
2022-12-06T12:58:07.430Z,5.31
2022-12-06T12:59:07.442Z,5.31
2022-12-06T13:00:07.421Z,5.28
2022-12-06T13:01:07.538Z,5.22
2022-12-06T13:02:07.436Z,5.20
2022-12-06T13:03:17.976Z,5.20
2022-12-06T13:04:07.372Z,5.15
2022-12-06T13:06:07.386Z,5.13
2022-12-06T13:07:07.324Z,5.17
2022-12-06T13:08:07.411Z,5.17
2022-12-06T13:09:07.315Z,5.10
2022-12-06T13:10:07.345Z,5.09
2022-12-06T13:11:07.300Z,5.10
2022-12-06T13:12:07.292Z,5.13
2022-12-06T13:13:07.352Z,5.17
2022-12-06T13:14:07.267Z,5.18
2022-12-06T13:15:07.244Z,5.21
2022-12-06T13:16:10.520Z,5.22
2022-12-06T13:17:07.301Z,5.24
2022-12-06T13:18:07.213Z,5.27
2022-12-06T13:19:07.220Z,5.28